createdAt,value
2023-03-31T00:00:13.100Z,99444.75
2023-03-31T00:01:15.204Z,99441.36
2023-03-31T00:02:17.768Z,99443.15
2023-03-31T00:03:21.001Z,99438.84
2023-03-31T00:04:23.823Z,99438.93
2023-03-31T00:05:26.349Z,99441.70
2023-03-31T00:06:29.721Z,99443.50
2023-03-31T00:07:31.851Z,99448.92
2023-03-31T00:08:34.239Z,99454.22
2023-03-31T00:09:36.823Z,99447.09
2023-03-31T00:10:42.557Z,99452.52
2023-03-31T00:11:45.173Z,99447.34
2023-03-31T00:12:47.356Z,99447.45
2023-03-31T00:13:49.751Z,99460.80
2023-03-31T00:14:51.868Z,99455.60
2023-03-31T00:16:06.598Z,99456.64
2023-03-31T00:17:09.939Z,99460.14
2023-03-31T00:18:12.296Z,99453.14
2023-03-31T00:19:14.458Z,99460.27
2023-03-31T00:20:17.034Z,99451.48
2023-03-31T00:22:31.581Z,99455.88
2023-03-31T00:23:33.716Z,99447.35
2023-03-31T00:24:36.211Z,99452.42
2023-03-31T00:25:42.057Z,99450.50
2023-03-31T00:26:44.273Z,99452.95
2023-03-31T00:27:46.698Z,99449.37
2023-03-31T00:28:50.209Z,99452.73
2023-03-31T00:29:52.518Z,99439.41
2023-03-31T00:30:58.468Z,99438.34
2023-03-31T00:32:01.067Z,99440.01
2023-03-31T00:33:03.500Z,99439.06
2023-03-31T00:34:06.873Z,99438.93
2023-03-31T00:35:09.397Z,99441.48
2023-03-31T00:36:12.628Z,99435.34
2023-03-31T00:37:14.929Z,99435.34
2023-03-31T00:38:18.100Z,99429.10
2023-03-31T00:39:20.532Z,99427.53
2023-03-31T00:40:23.236Z,99431.97
2023-03-31T00:41:29.221Z,99426.91
2023-03-31T00:42:31.439Z,99434.72
2023-03-31T00:43:36.311Z,99433.05
2023-03-31T00:46:21.813Z,99428.52
2023-03-31T00:47:25.333Z,99431.57
2023-03-31T00:48:27.576Z,99424.48
2023-03-31T00:50:54.704Z,99433.09
2023-03-31T00:53:12.647Z,99426.73
2023-03-31T00:54:16.285Z,99424.36
2023-03-31T00:55:21.997Z,99426.91
2023-03-31T00:56:24.846Z,99424.88
2023-03-31T00:57:28.322Z,99422.11
2023-03-31T00:58:31.809Z,99416.81
2023-03-31T01:00:53.805Z,99411.44
2023-03-31T01:01:57.219Z,99415.34
2023-03-31T01:03:03.428Z,99414.30
2023-03-31T01:04:06.344Z,99412.47
2023-03-31T01:05:09.196Z,99415.12
2023-03-31T01:06:13.238Z,99405.38
2023-03-31T01:07:37.348Z,99399.15
2023-03-31T01:08:40.367Z,99404.31
2023-03-31T01:09:44.907Z,99408.75
2023-03-31T01:10:50.943Z,99411.53
2023-03-31T01:11:53.414Z,99407.19
2023-03-31T01:12:57.107Z,99406.46
2023-03-31T01:13:59.482Z,99409.11
2023-03-31T01:15:04.338Z,99402.02
2023-03-31T01:16:07.034Z,99403.72
2023-03-31T01:17:09.937Z,99404.66
2023-03-31T01:18:14.350Z,99404.66
2023-03-31T01:19:20.738Z,99394.08
2023-03-31T01:20:38.922Z,99397.58
2023-03-31T01:23:42.131Z,99385.95
2023-03-31T01:25:05.505Z,99388.06
2023-03-31T01:26:33.239Z,99389.73
2023-03-31T01:27:48.715Z,99384.34
2023-03-31T01:28:57.296Z,99383.37
2023-03-31T01:31:38.388Z,99378.11
2023-03-31T01:32:45.381Z,99380.36
2023-03-31T01:34:06.523Z,99385.65
2023-03-31T01:35:27.998Z,99381.30
2023-03-31T01:36:51.834Z,99376.02
2023-03-31T01:38:20.936Z,99379.51
2023-03-31T01:39:43.681Z,99374.22
2023-03-31T01:41:08.254Z,99380.36
2023-03-31T01:42:35.759Z,99381.30
2023-03-31T01:43:52.411Z,99376.02
2023-03-31T01:46:26.844Z,99378.60
2023-03-31T01:47:38.649Z,99377.09
2023-03-31T01:48:47.313Z,99370.95
2023-03-31T01:50:10.672Z,99370.95
2023-03-31T01:51:22.648Z,99368.43
2023-03-31T01:52:45.428Z,99366.51
2023-03-31T01:53:57.485Z,99368.43
2023-03-31T01:55:03.346Z,99367.45
2023-03-31T01:56:09.594Z,99371.92
2023-03-31T01:57:18.489Z,99369.34
2023-03-31T01:59:49.634Z,99367.72
2023-03-31T02:01:01.635Z,99373.29
2023-03-31T02:02:14.286Z,99367.05
2023-03-31T02:03:20.572Z,99374.02
2023-03-31T02:04:32.323Z,99372.22
2023-03-31T02:06:50.576Z,99367.98
2023-03-31T02:07:58.954Z,99364.63
2023-03-31T02:09:08.032Z,99358.27
2023-03-31T02:10:12.975Z,99360.91
2023-03-31T02:11:16.217Z,99357.42
2023-03-31T02:12:20.706Z,99358.27
2023-03-31T02:13:25.244Z,99359.97
2023-03-31T02:14:29.762Z,99361.77
2023-03-31T02:16:47.444Z,99344.27
2023-03-31T02:17:53.314Z,99343.83
2023-03-31T02:18:57.960Z,99349.94
2023-03-31T02:21:14.210Z,99343.74
2023-03-31T02:22:20.188Z,99342.36
2023-03-31T02:23:25.901Z,99332.50
2023-03-31T02:24:30.472Z,99336.84
2023-03-31T02:25:36.098Z,99325.55
2023-03-31T02:31:26.376Z,99320.70
2023-03-31T02:32:39.802Z,99317.11
2023-03-31T02:33:42.200Z,99309.77
2023-03-31T02:34:45.514Z,99315.06
2023-03-31T02:35:48.207Z,99313.39
2023-03-31T02:36:50.334Z,99310.75
2023-03-31T02:37:52.543Z,99315.19
2023-03-31T02:39:01.477Z,99317.11
2023-03-31T02:40:06.445Z,99308.33
2023-03-31T02:41:10.508Z,99311.08
2023-03-31T02:42:12.916Z,99300.50
2023-03-31T02:43:15.114Z,99306.77
2023-03-31T02:44:17.989Z,99307.70
2023-03-31T02:46:56.966Z,99295.14
2023-03-31T02:47:59.512Z,99299.55
2023-03-31T02:49:03.986Z,99308.11
2023-03-31T02:50:08.386Z,99302.33
2023-03-31T02:51:40.287Z,99301.25
2023-03-31T02:53:01.149Z,99297.43
2023-03-31T02:55:46.801Z,99297.88
2023-03-31T02:57:01.784Z,99297.88
2023-03-31T02:59:51.437Z,99296.70
2023-03-31T03:01:10.111Z,99304.50
2023-03-31T03:02:38.277Z,99299.59
2023-03-31T03:03:50.568Z,99308.86
2023-03-31T03:05:25.447Z,99301.63
2023-03-31T03:08:19.176Z,99296.95
2023-03-31T03:10:56.816Z,99299.73
2023-03-31T03:12:15.224Z,99299.47
2023-03-31T03:14:37.981Z,99300.03
2023-03-31T03:15:50.636Z,99297.03
2023-03-31T03:17:05.525Z,99300.01
2023-03-31T03:18:07.670Z,99302.17
2023-03-31T03:19:10.329Z,99306.84
2023-03-31T03:20:15.422Z,99307.16
2023-03-31T03:21:18.079Z,99304.03
2023-03-31T03:22:21.090Z,99301.74
2023-03-31T03:23:23.252Z,99302.81
2023-03-31T03:24:25.457Z,99295.95
2023-03-31T03:25:27.751Z,99298.70
2023-03-31T03:26:29.925Z,99296.19
2023-03-31T03:27:32.580Z,99299.05
2023-03-31T03:28:35.002Z,99300.23
2023-03-31T03:29:37.071Z,99294.34
2023-03-31T03:30:39.907Z,99295.39
2023-03-31T03:31:42.714Z,99278.09
2023-03-31T03:32:44.970Z,99283.59
2023-03-31T03:33:47.234Z,99289.83
2023-03-31T03:34:49.407Z,99278.66
2023-03-31T03:35:51.842Z,99277.81
2023-03-31T03:36:53.933Z,99277.91
2023-03-31T03:37:55.892Z,99273.48
2023-03-31T03:38:58.337Z,99266.39
2023-03-31T03:40:00.515Z,99267.47
2023-03-31T03:41:03.113Z,99276.47
2023-03-31T03:42:05.437Z,99269.61
2023-03-31T03:43:07.870Z,99275.75
2023-03-31T03:44:10.061Z,99268.98
2023-03-31T03:45:12.207Z,99276.92
2023-03-31T03:46:15.141Z,99280.53
2023-03-31T03:47:17.280Z,99282.33
2023-03-31T03:48:19.773Z,99273.55
2023-03-31T03:49:22.487Z,99276.20
2023-03-31T03:50:24.725Z,99275.34
2023-03-31T03:51:26.731Z,99269.21
2023-03-31T03:52:29.021Z,99277.27
2023-03-31T03:53:31.176Z,99277.27
2023-03-31T03:54:33.345Z,99271.13
2023-03-31T03:55:35.425Z,99270.41
2023-03-31T03:56:37.684Z,99265.98
2023-03-31T03:57:39.747Z,99263.43
2023-03-31T03:58:42.277Z,99262.48
2023-03-31T03:59:44.358Z,99259.84
2023-03-31T04:00:46.470Z,99268.71
2023-03-31T04:01:49.104Z,99262.48
2023-03-31T04:02:51.180Z,99257.20
2023-03-31T04:03:53.419Z,99264.27
2023-03-31T04:04:56.747Z,99262.48
2023-03-31T04:05:59.156Z,99266.92
2023-03-31T04:08:12.414Z,99255.68
2023-03-31T04:09:15.094Z,99262.20
2023-03-31T04:10:19.341Z,99263.88
2023-03-31T04:11:24.066Z,99260.16
2023-03-31T04:12:26.894Z,99258.27
2023-03-31T04:13:29.589Z,99260.91
2023-03-31T04:14:31.566Z,99266.20
2023-03-31T04:15:34.071Z,99265.22
2023-03-31T04:16:36.084Z,99263.43
2023-03-31T04:17:38.346Z,99260.69
2023-03-31T04:18:42.078Z,99259.84
2023-03-31T04:19:44.689Z,99252.77
2023-03-31T04:20:46.869Z,99257.20
2023-03-31T04:21:49.097Z,99259.71
2023-03-31T04:22:51.076Z,99254.43
2023-03-31T04:23:55.020Z,99251.69
2023-03-31T04:24:57.133Z,99252.41
2023-03-31T04:26:01.063Z,99251.34
2023-03-31T04:27:03.433Z,99254.11
2023-03-31T04:28:06.102Z,99254.11
2023-03-31T04:30:40.088Z,99242.51
2023-03-31T04:31:43.428Z,99247.13
2023-03-31T04:32:46.029Z,99242.69
2023-03-31T04:33:48.550Z,99249.77
2023-03-31T04:34:51.604Z,99243.54
2023-03-31T04:35:54.847Z,99246.28
2023-03-31T04:37:00.387Z,99248.92
2023-03-31T04:38:02.406Z,99241.94
2023-03-31T04:39:04.957Z,99246.28
2023-03-31T04:40:09.203Z,99241.84
2023-03-31T04:41:11.550Z,99240.05
2023-03-31T04:42:13.819Z,99236.55
2023-03-31T04:43:19.581Z,99235.61
2023-03-31T04:44:22.289Z,99240.05
2023-03-31T04:45:24.485Z,99234.77
2023-03-31T04:46:26.694Z,99234.63
2023-03-31T04:47:28.851Z,99233.69
2023-03-31T04:48:32.115Z,99234.41
2023-03-31T04:49:34.619Z,99238.75
2023-03-31T04:50:37.311Z,99236.11
2023-03-31T04:51:39.861Z,99236.11
2023-03-31T04:52:42.034Z,99236.11
2023-03-31T04:53:44.220Z,99222.05
2023-03-31T04:54:46.291Z,99234.41
2023-03-31T04:55:49.757Z,99232.71
2023-03-31T04:58:03.249Z,99222.18
2023-03-31T04:59:05.424Z,99227.78
2023-03-31T05:00:10.305Z,99220.58
2023-03-31T05:01:12.452Z,99222.14
2023-03-31T05:02:14.580Z,99212.42
2023-03-31T05:03:17.350Z,99212.42
2023-03-31T05:04:19.832Z,99212.42
2023-03-31T05:05:22.024Z,99215.06
2023-03-31T05:06:24.302Z,99213.39
2023-03-31T05:07:27.087Z,99216.03
2023-03-31T05:08:29.809Z,99215.06
2023-03-31T05:09:33.020Z,99217.61
2023-03-31T05:10:36.080Z,99212.19
2023-03-31T05:11:38.993Z,99209.55
2023-03-31T05:12:41.213Z,99208.47
2023-03-31T05:13:43.399Z,99208.47
2023-03-31T05:14:45.467Z,99208.37
2023-03-31T05:15:48.148Z,99212.81
2023-03-31T05:16:50.577Z,99215.45
2023-03-31T05:17:53.125Z,99212.81
2023-03-31T05:18:55.333Z,99208.37
2023-03-31T05:19:57.543Z,99200.31
2023-03-31T05:22:18.560Z,99206.35
2023-03-31T05:23:21.149Z,99211.24
2023-03-31T05:24:23.223Z,99203.19
2023-03-31T05:25:25.662Z,99203.09
2023-03-31T05:26:28.266Z,99196.73
2023-03-31T05:27:30.435Z,99194.94
2023-03-31T05:28:32.706Z,99188.80
2023-03-31T05:29:34.765Z,99193.00
2023-03-31T05:30:36.729Z,99191.21
2023-03-31T05:31:39.830Z,99192.03
2023-03-31T05:32:43.736Z,99184.95
2023-03-31T05:33:46.495Z,99192.87
2023-03-31T05:34:50.277Z,99186.52
2023-03-31T05:35:52.857Z,99187.48
2023-03-31T05:36:55.124Z,99183.77
2023-03-31T05:37:57.282Z,99188.92
2023-03-31T05:38:59.469Z,99180.05
2023-03-31T05:40:01.729Z,99174.77
2023-03-31T05:41:05.145Z,99180.89
2023-03-31T05:42:07.326Z,99180.89
2023-03-31T05:43:09.397Z,99177.27
2023-03-31T05:44:12.076Z,99176.42
2023-03-31T05:45:14.427Z,99184.35
2023-03-31T05:46:16.913Z,99173.78
2023-03-31T05:47:19.579Z,99173.78
2023-03-31T05:48:21.782Z,99173.78
2023-03-31T05:49:24.001Z,99172.83
2023-03-31T05:50:26.776Z,99168.39
2023-03-31T05:51:28.759Z,99162.26
2023-03-31T05:52:30.877Z,99168.39
2023-03-31T05:53:33.259Z,99165.75
2023-03-31T05:54:36.104Z,99162.26
2023-03-31T05:55:38.764Z,99163.95
2023-03-31T05:56:40.983Z,99162.16
2023-03-31T05:57:43.745Z,99157.69
2023-03-31T05:58:46.005Z,99155.05
2023-03-31T05:59:48.277Z,99147.11
2023-03-31T06:00:51.157Z,99148.94
2023-03-31T06:01:53.524Z,99140.74
2023-03-31T06:02:55.777Z,99143.29
2023-03-31T06:03:57.938Z,99133.56
2023-03-31T06:05:01.198Z,99131.77
2023-03-31T06:06:05.052Z,99136.92
2023-03-31T06:07:07.654Z,99134.41
2023-03-31T06:08:09.652Z,99134.41
2023-03-31T06:09:12.353Z,99143.29
2023-03-31T06:10:14.535Z,99142.34
2023-03-31T06:11:19.416Z,99137.05
2023-03-31T06:12:22.643Z,99144.98
2023-03-31T06:13:24.949Z,99142.34
2023-03-31T06:14:27.629Z,99137.05
2023-03-31T06:15:29.820Z,99124.78
2023-03-31T06:16:32.273Z,99133.56
2023-03-31T06:17:36.846Z,99129.22
2023-03-31T06:18:39.928Z,99122.98
2023-03-31T06:19:42.238Z,99118.64
2023-03-31T06:20:44.497Z,99123.09
2023-03-31T06:21:46.635Z,99121.42
2023-03-31T06:22:49.289Z,99127.52
2023-03-31T06:23:51.548Z,99125.63
2023-03-31T06:24:54.777Z,99131.77
2023-03-31T06:27:10.446Z,99121.16
2023-03-31T06:28:12.544Z,99117.08
2023-03-31T06:29:15.201Z,99118.78
2023-03-31T06:30:18.218Z,99120.34
2023-03-31T06:31:23.697Z,99113.12
2023-03-31T06:32:25.862Z,99108.55
2023-03-31T06:33:28.319Z,99120.82
2023-03-31T06:34:30.368Z,99112.75
2023-03-31T06:35:32.527Z,99110.95
2023-03-31T06:36:34.779Z,99110.95
2023-03-31T06:37:36.871Z,99106.52
2023-03-31T06:38:39.023Z,99107.36
2023-03-31T06:39:41.208Z,99107.23
2023-03-31T06:40:43.496Z,99108.92
2023-03-31T06:41:45.604Z,99108.79
2023-03-31T06:42:49.721Z,99109.64
2023-03-31T06:43:52.409Z,99106.04
2023-03-31T06:44:55.144Z,99102.41
2023-03-31T06:45:57.465Z,99102.17
2023-03-31T06:46:59.665Z,99098.58
2023-03-31T06:48:01.937Z,99097.60
2023-03-31T06:49:04.204Z,99101.84
2023-03-31T06:50:09.804Z,99100.86
2023-03-31T06:51:12.343Z,99096.27
2023-03-31T06:52:14.820Z,99097.26
2023-03-31T06:53:16.986Z,99092.68
2023-03-31T06:54:19.199Z,99097.02
2023-03-31T06:55:21.359Z,99096.03
2023-03-31T06:56:23.530Z,99098.69
2023-03-31T06:58:44.152Z,99100.41
2023-03-31T06:59:46.614Z,99109.64
2023-03-31T07:00:49.486Z,99110.34
2023-03-31T07:01:51.743Z,99114.55
2023-03-31T07:02:54.887Z,99112.76
2023-03-31T07:03:59.566Z,99112.69
2023-03-31T07:05:01.725Z,99119.53
2023-03-31T07:06:06.501Z,99115.20
2023-03-31T07:07:08.653Z,99114.24
2023-03-31T07:08:10.824Z,99107.97
2023-03-31T07:09:13.475Z,99106.17
2023-03-31T07:10:16.740Z,99106.88
2023-03-31T07:11:21.072Z,99099.80
2023-03-31T07:12:23.948Z,99096.30
2023-03-31T07:13:26.996Z,99100.64
2023-03-31T07:14:29.569Z,99092.70
2023-03-31T07:15:32.793Z,99094.40
2023-03-31T07:16:35.561Z,99095.22
2023-03-31T07:17:38.021Z,99093.31
2023-03-31T07:18:41.413Z,99093.31
2023-03-31T07:19:45.638Z,99090.53
2023-03-31T07:20:48.740Z,99087.88
2023-03-31T07:21:50.975Z,99088.73
2023-03-31T07:22:53.082Z,99090.42
2023-03-31T07:23:58.084Z,99087.54
2023-03-31T07:25:00.739Z,99086.55
2023-03-31T07:26:03.465Z,99081.16
2023-03-31T07:27:05.810Z,99079.33
2023-03-31T07:28:08.286Z,99082.71
2023-03-31T07:29:12.227Z,99083.53
2023-03-31T07:30:17.959Z,99076.44
2023-03-31T07:31:20.720Z,99078.98
2023-03-31T07:32:28.468Z,99077.17
2023-03-31T07:33:32.816Z,99068.25
2023-03-31T07:34:37.759Z,99073.55
2023-03-31T07:35:42.088Z,99065.50
2023-03-31T07:36:44.723Z,99068.86
2023-03-31T07:37:49.277Z,99062.61
2023-03-31T07:38:55.580Z,99066.07
2023-03-31T07:40:02.053Z,99066.07
2023-03-31T07:41:09.020Z,99064.16
2023-03-31T07:42:09.122Z,99067.62
2023-03-31T07:43:11.800Z,99062.33
2023-03-31T07:44:16.348Z,99062.22
2023-03-31T07:45:23.443Z,99066.42
2023-03-31T07:46:29.411Z,99067.13
2023-03-31T07:47:31.972Z,99064.38
2023-03-31T07:48:38.242Z,99066.78
2023-03-31T07:49:42.768Z,99057.86
2023-03-31T07:50:50.370Z,99055.10
2023-03-31T07:51:54.492Z,99061.95
2023-03-31T07:52:57.913Z,99061.70
2023-03-31T07:54:03.703Z,99057.11
2023-03-31T07:55:07.249Z,99058.80
2023-03-31T07:56:09.677Z,99056.97
2023-03-31T07:57:13.754Z,99059.62
2023-03-31T07:58:20.696Z,99052.41
2023-03-31T07:59:24.952Z,99055.87
2023-03-31T08:00:30.598Z,99056.62
2023-03-31T08:01:32.692Z,99052.98
2023-03-31T08:02:36.450Z,99056.23
2023-03-31T08:03:38.932Z,99056.93
2023-03-31T08:04:46.401Z,99055.84
2023-03-31T08:07:05.797Z,99039.53
2023-03-31T08:08:24.694Z,99044.73
2023-03-31T08:09:26.793Z,99047.59
2023-03-31T08:10:30.322Z,99041.93
2023-03-31T08:11:33.904Z,99047.78
2023-03-31T08:12:36.017Z,99040.44
2023-03-31T08:13:38.766Z,99044.48
2023-03-31T08:14:48.537Z,99037.13
2023-03-31T08:15:53.905Z,99039.53
2023-03-31T08:16:56.261Z,99039.13
2023-03-31T08:17:59.970Z,99035.27
2023-03-31T08:19:04.742Z,99042.81
2023-03-31T08:20:11.209Z,99032.66
2023-03-31T08:21:16.343Z,99031.44
2023-03-31T08:22:18.591Z,99043.44
2023-03-31T08:23:22.398Z,99040.42
2023-03-31T08:24:25.371Z,99035.67
2023-03-31T08:25:30.979Z,99025.53
2023-03-31T08:26:33.884Z,99022.33
2023-03-31T08:27:41.069Z,99015.95
2023-03-31T08:28:45.587Z,99018.30
2023-03-31T08:29:47.860Z,99011.63
2023-03-31T08:30:55.332Z,99016.55
2023-03-31T08:31:59.336Z,99020.48
2023-03-31T08:33:01.580Z,99018.27
2023-03-31T08:34:06.034Z,99015.08
2023-03-31T08:35:11.527Z,99011.89
2023-03-31T08:36:17.227Z,99008.02
2023-03-31T08:37:19.668Z,99012.05
2023-03-31T08:38:22.351Z,99012.90
2023-03-31T08:39:26.907Z,99009.98
2023-03-31T08:40:34.307Z,99009.02
2023-03-31T08:41:57.952Z,99006.21
2023-03-31T08:43:09.638Z,99005.09
2023-03-31T08:44:22.354Z,99004.98
2023-03-31T08:45:29.185Z,99009.28
2023-03-31T08:46:32.729Z,99003.16
2023-03-31T08:47:37.908Z,99005.94
2023-03-31T08:48:43.762Z,99001.63
2023-03-31T08:51:08.941Z,98996.47
2023-03-31T08:52:17.884Z,99001.44
2023-03-31T08:54:45.638Z,98996.17
2023-03-31T08:55:56.251Z,99000.05
2023-03-31T08:56:59.284Z,98997.39
2023-03-31T08:59:27.399Z,98985.70
2023-03-31T09:00:33.205Z,98994.05
2023-03-31T09:01:58.288Z,98991.12
2023-03-31T09:03:07.071Z,98989.17
2023-03-31T09:04:30.821Z,98999.52
2023-03-31T09:05:58.907Z,98986.09
2023-03-31T09:07:17.470Z,98986.94
2023-03-31T09:08:38.335Z,98992.24
2023-03-31T09:10:16.530Z,98984.98
2023-03-31T09:11:53.112Z,98991.97
2023-03-31T09:12:58.997Z,98974.36
2023-03-31T09:14:32.466Z,98979.67
2023-03-31T09:15:40.179Z,98977.02
2023-03-31T09:16:46.043Z,98971.59
2023-03-31T09:17:49.633Z,98977.74
2023-03-31T09:18:54.931Z,98975.20
2023-03-31T09:20:06.723Z,98976.05
2023-03-31T09:21:19.745Z,98973.52
2023-03-31T09:22:26.709Z,98974.36
2023-03-31T09:23:33.003Z,98970.74
2023-03-31T09:25:58.026Z,98969.63
2023-03-31T09:27:07.137Z,98963.75
2023-03-31T09:29:48.455Z,98958.89
2023-03-31T09:30:52.219Z,98952.16
2023-03-31T09:31:54.775Z,98961.52
2023-03-31T09:34:27.067Z,98962.92
2023-03-31T09:35:32.658Z,98962.36
2023-03-31T09:36:35.136Z,98960.39
2023-03-31T09:37:37.331Z,98957.47
2023-03-31T09:38:42.380Z,98960.84
2023-03-31T09:39:48.306Z,98956.35
2023-03-31T09:40:50.544Z,98950.92
2023-03-31T09:41:53.965Z,98957.92
2023-03-31T09:44:40.799Z,98943.39
2023-03-31T09:45:54.746Z,98938.49
2023-03-31T09:46:51.435Z,98937.22
2023-03-31T09:47:56.494Z,98941.56
2023-03-31T09:49:19.105Z,98933.60
2023-03-31T09:50:25.149Z,98943.09
2023-03-31T09:51:35.549Z,98930.52
2023-03-31T09:52:41.861Z,98927.02
2023-03-31T09:53:50.760Z,98930.52
2023-03-31T09:55:03.272Z,98932.20
2023-03-31T09:56:10.702Z,98929.39
2023-03-31T09:57:15.737Z,98917.81
2023-03-31T09:58:19.172Z,98931.77
2023-03-31T09:59:35.377Z,98925.50
2023-03-31T10:02:04.490Z,98917.92
2023-03-31T10:03:08.053Z,98915.72
2023-03-31T10:05:34.702Z,98916.95
2023-03-31T10:06:42.864Z,98918.09
2023-03-31T10:07:47.912Z,98913.48
2023-03-31T10:09:09.005Z,98907.89
2023-03-31T10:10:29.077Z,98906.04
2023-03-31T10:11:32.042Z,98901.30
2023-03-31T10:12:37.075Z,98901.98
2023-03-31T10:13:54.531Z,98906.33
2023-03-31T10:16:52.196Z,98901.55
2023-03-31T10:17:58.438Z,98911.64
2023-03-31T10:19:24.140Z,98900.89
2023-03-31T10:23:36.261Z,98893.73
2023-03-31T10:24:41.029Z,98898.36
2023-03-31T10:25:47.879Z,98892.08
2023-03-31T10:26:56.748Z,98884.80
2023-03-31T10:28:02.117Z,98889.95
2023-03-31T10:29:13.605Z,98888.98
2023-03-31T10:30:19.704Z,98895.98
2023-03-31T10:31:29.930Z,98889.67
2023-03-31T10:32:43.415Z,98885.20
2023-03-31T10:33:51.213Z,98889.55
2023-03-31T10:34:57.553Z,98883.39
2023-03-31T10:36:11.707Z,98880.58
2023-03-31T10:37:21.234Z,98886.73
2023-03-31T10:38:35.236Z,98888.42
2023-03-31T10:39:40.321Z,98875.98
2023-03-31T10:42:00.794Z,98882.66
2023-03-31T10:44:36.996Z,98872.03
2023-03-31T10:45:47.937Z,98878.36
2023-03-31T10:46:52.112Z,98879.04
2023-03-31T10:49:21.513Z,98868.93
2023-03-31T10:51:59.799Z,98866.95
2023-03-31T10:53:08.931Z,98869.09
2023-03-31T10:54:11.984Z,98867.00
2023-03-31T10:56:40.296Z,98865.41
2023-03-31T10:57:57.487Z,98872.84
2023-03-31T11:02:25.429Z,98862.48
2023-03-31T11:03:37.814Z,98865.83
2023-03-31T11:05:18.396Z,98872.55
2023-03-31T11:06:39.584Z,98855.59
2023-03-31T11:07:49.337Z,98861.62
2023-03-31T11:08:55.638Z,98857.57
2023-03-31T11:10:25.863Z,98855.91
2023-03-31T11:11:40.676Z,98862.20
2023-03-31T11:13:05.226Z,98854.91
2023-03-31T11:15:36.478Z,98851.10
2023-03-31T11:16:51.838Z,98854.39
2023-03-31T11:18:12.645Z,98837.44
2023-03-31T11:19:35.637Z,98852.41
2023-03-31T11:22:21.874Z,98838.49
2023-03-31T11:23:41.409Z,98841.50
2023-03-31T11:24:56.610Z,98836.99
2023-03-31T11:26:20.678Z,98835.89
2023-03-31T11:27:32.587Z,98838.39
2023-03-31T11:28:42.482Z,98839.91
2023-03-31T11:29:48.168Z,98837.26
2023-03-31T11:30:57.776Z,98836.28
2023-03-31T11:32:31.335Z,98836.28
2023-03-31T11:33:49.242Z,98835.28
2023-03-31T11:35:14.973Z,98833.17
2023-03-31T11:38:10.404Z,98830.33
2023-03-31T11:39:22.552Z,98828.31
2023-03-31T11:40:48.146Z,98832.50
2023-03-31T11:41:53.967Z,98830.68
2023-03-31T11:43:19.360Z,98828.83
2023-03-31T11:44:23.348Z,98834.15
2023-03-31T11:45:34.488Z,98827.86
2023-03-31T11:46:55.233Z,98823.39
2023-03-31T11:48:02.341Z,98827.73
2023-03-31T11:49:32.245Z,98828.41
2023-03-31T11:50:36.795Z,98812.47
2023-03-31T11:53:25.765Z,98805.65
2023-03-31T11:54:40.410Z,98807.14
2023-03-31T11:55:47.500Z,98807.66
2023-03-31T11:56:56.057Z,98811.03
2023-03-31T12:00:53.180Z,98803.74
2023-03-31T12:02:09.731Z,98803.58
2023-03-31T12:03:34.948Z,98806.11
2023-03-31T12:04:40.531Z,98798.97
2023-03-31T12:05:46.129Z,98801.47
2023-03-31T12:06:49.558Z,98796.45
2023-03-31T12:08:03.736Z,98798.27
2023-03-31T12:09:40.333Z,98796.45
2023-03-31T12:12:22.694Z,98785.17
2023-03-31T12:13:33.960Z,98790.83
2023-03-31T12:16:46.886Z,98778.85
2023-03-31T12:18:05.142Z,98781.88
2023-03-31T12:19:17.585Z,98785.22
2023-03-31T12:22:12.107Z,98772.39
2023-03-31T12:24:35.653Z,98773.23
2023-03-31T12:25:52.322Z,98771.93
2023-03-31T12:28:26.487Z,98773.78
2023-03-31T12:29:38.001Z,98768.00
2023-03-31T12:30:42.537Z,98774.97
2023-03-31T12:31:47.357Z,98768.67
2023-03-31T12:34:14.752Z,98756.81
2023-03-31T12:38:34.187Z,98753.19
2023-03-31T12:41:47.226Z,98750.80
2023-03-31T12:43:02.354Z,98750.28
2023-03-31T12:45:50.969Z,98739.86
2023-03-31T12:47:17.589Z,98734.02
2023-03-31T12:48:34.959Z,98734.73
2023-03-31T12:50:14.507Z,98738.20
2023-03-31T12:51:26.034Z,98733.63
2023-03-31T12:53:02.535Z,98737.80
2023-03-31T12:55:58.725Z,98731.11
2023-03-31T12:57:10.445Z,98728.30
2023-03-31T13:01:18.600Z,98714.91
2023-03-31T13:02:28.753Z,98725.06
2023-03-31T13:05:39.150Z,98730.56
2023-03-31T13:06:50.631Z,98724.09
2023-03-31T13:07:52.761Z,98715.81
2023-03-31T13:09:08.799Z,98721.84
2023-03-31T13:10:27.424Z,98725.34
2023-03-31T13:13:03.934Z,98727.30
2023-03-31T13:14:26.211Z,98717.03
2023-03-31T13:15:34.739Z,98718.24
2023-03-31T13:16:48.226Z,98712.02
2023-03-31T13:18:02.870Z,98705.11
2023-03-31T13:21:59.532Z,98700.16
2023-03-31T13:23:05.181Z,98699.22
2023-03-31T13:24:08.494Z,98692.97
2023-03-31T13:25:31.532Z,98700.30
2023-03-31T13:26:37.220Z,98692.70
2023-03-31T13:29:15.572Z,98693.58
2023-03-31T13:32:08.060Z,98687.94
2023-03-31T13:33:18.462Z,98682.39
2023-03-31T13:34:23.064Z,98686.71
2023-03-31T13:35:31.492Z,98686.57
2023-03-31T13:36:44.651Z,98684.75
2023-03-31T13:38:25.972Z,98675.07
2023-03-31T13:40:02.542Z,98683.06
2023-03-31T13:41:12.591Z,98676.58
2023-03-31T13:42:44.240Z,98676.41
2023-03-31T13:44:12.483Z,98668.59
2023-03-31T13:45:27.894Z,98679.24
2023-03-31T13:48:03.999Z,98676.30
2023-03-31T13:51:02.515Z,98674.94
2023-03-31T13:52:33.681Z,98674.72
2023-03-31T13:54:13.299Z,98672.90
2023-03-31T13:57:02.375Z,98666.59
2023-03-31T13:58:33.678Z,98674.82
2023-03-31T13:59:44.923Z,98672.47
2023-03-31T14:02:54.819Z,98673.17
2023-03-31T14:06:59.020Z,98667.75
2023-03-31T14:08:12.092Z,98675.64
2023-03-31T14:10:41.681Z,98666.55
2023-03-31T14:11:43.887Z,98665.61
2023-03-31T14:12:48.907Z,98665.44
2023-03-31T14:14:22.312Z,98665.61
2023-03-31T14:15:24.455Z,98667.43
2023-03-31T14:16:28.440Z,98665.61
2023-03-31T14:17:36.626Z,98663.09
2023-03-31T14:18:44.700Z,98664.91
2023-03-31T14:21:25.962Z,98656.84
2023-03-31T14:24:02.336Z,98649.16
2023-03-31T14:25:34.369Z,98654.07
2023-03-31T14:26:43.130Z,98659.39
2023-03-31T14:28:19.431Z,98658.72
2023-03-31T14:29:49.786Z,98659.87
2023-03-31T14:31:25.821Z,98658.19
2023-03-31T14:32:34.481Z,98662.67
2023-03-31T14:38:22.372Z,98660.48
2023-03-31T14:39:33.888Z,98670.28
2023-03-31T14:45:01.289Z,98658.02
2023-03-31T14:46:34.285Z,98661.23
2023-03-31T14:47:43.933Z,98667.26
2023-03-31T14:50:22.521Z,98655.66
2023-03-31T14:53:20.769Z,98652.33
2023-03-31T14:54:24.029Z,98655.55
2023-03-31T14:55:35.842Z,98659.22
2023-03-31T14:57:52.617Z,98651.80
2023-03-31T14:58:57.825Z,98660.36
2023-03-31T15:00:05.562Z,98662.17
2023-03-31T15:01:10.097Z,98654.50
2023-03-31T15:02:19.424Z,98659.83
2023-03-31T15:03:21.847Z,98664.30
2023-03-31T15:04:41.908Z,98667.94
2023-03-31T15:05:48.984Z,98665.28
2023-03-31T15:06:57.774Z,98663.46
2023-03-31T15:08:06.518Z,98665.41
2023-03-31T15:09:13.865Z,98672.72
2023-03-31T15:10:21.344Z,98676.52
2023-03-31T15:11:30.776Z,98676.66
2023-03-31T15:12:34.328Z,98668.00
2023-03-31T15:15:08.931Z,98668.24
2023-03-31T15:16:36.691Z,98676.15
2023-03-31T15:17:41.175Z,98662.38
2023-03-31T15:18:44.136Z,98669.05
2023-03-31T15:19:48.179Z,98666.25
2023-03-31T15:20:55.024Z,98674.23
2023-03-31T15:22:16.635Z,98666.25
2023-03-31T15:23:27.928Z,98666.13
2023-03-31T15:24:31.002Z,98666.83
2023-03-31T15:25:36.228Z,98670.46
2023-03-31T15:26:54.751Z,98664.98
2023-03-31T15:29:40.723Z,98670.22